Tenby, United Kingdom
Current Conditions -  °F | °C
As of 7:50 PM on Thursday 23 Oct 2014 (Local Time) from EGOP Reporting Station
Broken Clouds Broken Clouds  
Wind Chill: 59°   Ceiling: 1300
Heat Index: 59°   Visibility: 1.6mi
Dew Point: 57°   Wind: 23mph
Humidity: 94%   Direction: 220°SW
Pressure: 29.97"   Gusts: NA
Location:  51.67°N, 4.7°W
Report Text: EGOP 231850Z AUTO 22020KT 2600 // SCT005/// BKN013/// 15/14 Q1015
Loading
Personal Weather Stations






























Interactive Weather Map
Tropical Storm Tracking
New forecast layout! Learn more

10-Day Weather Forecast

Advertisements
Track Severe Weather on mobile